sensor_id;sensor_type;location;lat;lon;timestamp;P1;durP1;ratioP1;P2;durP2;ratioP2
35330;SDS011;21441;52.190;20.910;2024-02-23T00:00:54;9.77;;;7.22;;
35330;SDS011;21441;52.190;20.910;2024-02-23T00:03:41;7.53;;;6.47;;
35330;SDS011;21441;52.190;20.910;2024-02-23T00:06:09;10.75;;;7.20;;
35330;SDS011;21441;52.190;20.910;2024-02-23T00:08:35;9.68;;;8.10;;
35330;SDS011;21441;52.190;20.910;2024-02-23T00:11:03;9.98;;;7.45;;
35330;SDS011;21441;52.190;20.910;2024-02-23T00:13:31;12.38;;;7.75;;
35330;SDS011;21441;52.190;20.910;2024-02-23T00:15:58;13.90;;;7.40;;
35330;SDS011;21441;52.190;20.910;2024-02-23T00:18:24;7.72;;;6.10;;
35330;SDS011;21441;52.190;20.910;2024-02-23T00:20:53;8.68;;;6.22;;
35330;SDS011;21441;52.190;20.910;2024-02-23T00:23:19;10.80;;;8.02;;
35330;SDS011;21441;52.190;20.910;2024-02-23T00:25:46;11.18;;;7.65;;
35330;SDS011;21441;52.190;20.910;2024-02-23T00:28:13;9.18;;;7.10;;
35330;SDS011;21441;52.190;20.910;2024-02-23T00:30:40;9.77;;;6.75;;
35330;SDS011;21441;52.190;20.910;2024-02-23T00:33:07;10.50;;;7.72;;
35330;SDS011;21441;52.190;20.910;2024-02-23T00:35:35;10.02;;;7.28;;
35330;SDS011;21441;52.190;20.910;2024-02-23T00:38:03;7.57;;;6.32;;
35330;SDS011;21441;52.190;20.910;2024-02-23T00:40:30;9.25;;;6.82;;
35330;SDS011;21441;52.190;20.910;2024-02-23T00:42:57;10.07;;;7.32;;
35330;SDS011;21441;52.190;20.910;2024-02-23T00:45:26;10.05;;;7.50;;
35330;SDS011;21441;52.190;20.910;2024-02-23T00:47:52;9.95;;;7.80;;
35330;SDS011;21441;52.190;20.910;2024-02-23T00:50:19;11.32;;;6.53;;
35330;SDS011;21441;52.190;20.910;2024-02-23T00:52:46;10.98;;;7.38;;
35330;SDS011;21441;52.190;20.910;2024-02-23T00:55:14;9.07;;;6.75;;
35330;SDS011;21441;52.190;20.910;2024-02-23T00:57:41;8.05;;;7.20;;
35330;SDS011;21441;52.190;20.910;2024-02-23T01:00:08;8.90;;;8.00;;
35330;SDS011;21441;52.190;20.910;2024-02-23T01:02:35;10.23;;;8.40;;
35330;SDS011;21441;52.190;20.910;2024-02-23T01:05:02;8.98;;;7.45;;
35330;SDS011;21441;52.190;20.910;2024-02-23T01:07:30;9.07;;;7.28;;
35330;SDS011;21441;52.190;20.910;2024-02-23T01:09:57;9.48;;;6.60;;
35330;SDS011;21441;52.190;20.910;2024-02-23T01:12:25;10.10;;;7.47;;
35330;SDS011;21441;52.190;20.910;2024-02-23T01:14:52;8.38;;;6.68;;
35330;SDS011;21441;52.190;20.910;2024-02-23T01:17:19;8.75;;;7.78;;
35330;SDS011;21441;52.190;20.910;2024-02-23T01:19:46;8.52;;;7.63;;
35330;SDS011;21441;52.190;20.910;2024-02-23T01:22:13;8.23;;;6.90;;
35330;SDS011;21441;52.190;20.910;2024-02-23T01:24:40;9.13;;;6.60;;
35330;SDS011;21441;52.190;20.910;2024-02-23T01:27:07;7.97;;;7.18;;
35330;SDS011;21441;52.190;20.910;2024-02-23T01:29:35;7.70;;;6.63;;
35330;SDS011;21441;52.190;20.910;2024-02-23T01:32:02;10.63;;;7.28;;
35330;SDS011;21441;52.190;20.910;2024-02-23T01:34:28;8.93;;;6.28;;
35330;SDS011;21441;52.190;20.910;2024-02-23T01:36:55;7.28;;;5.75;;
35330;SDS011;21441;52.190;20.910;2024-02-23T01:39:22;8.10;;;6.15;;
35330;SDS011;21441;52.190;20.910;2024-02-23T01:41:49;8.52;;;6.88;;
35330;SDS011;21441;52.190;20.910;2024-02-23T01:44:15;7.55;;;6.22;;
35330;SDS011;21441;52.190;20.910;2024-02-23T01:46:44;10.30;;;7.35;;
35330;SDS011;21441;52.190;20.910;2024-02-23T01:49:11;7.78;;;6.95;;
35330;SDS011;21441;52.190;20.910;2024-02-23T01:51:38;8.63;;;7.55;;
35330;SDS011;21441;52.190;20.910;2024-02-23T01:54:05;8.45;;;6.60;;
35330;SDS011;21441;52.190;20.910;2024-02-23T01:56:32;10.13;;;6.55;;
35330;SDS011;21441;52.190;20.910;2024-02-23T01:58:59;7.55;;;6.55;;
35330;SDS011;21441;52.190;20.910;2024-02-23T02:01:26;8.65;;;6.72;;
35330;SDS011;21441;52.190;20.910;2024-02-23T02:03:54;6.75;;;6.00;;
35330;SDS011;21441;52.190;20.910;2024-02-23T02:06:22;7.68;;;6.53;;
35330;SDS011;21441;52.190;20.910;2024-02-23T02:08:48;8.52;;;6.80;;
35330;SDS011;21441;52.190;20.910;2024-02-23T02:11:15;9.98;;;7.35;;
35330;SDS011;21441;52.190;20.910;2024-02-23T02:13:42;8.88;;;7.38;;
35330;SDS011;21441;52.190;20.910;2024-02-23T02:16:09;7.43;;;6.20;;
35330;SDS011;21441;52.190;20.910;2024-02-23T02:18:36;7.10;;;6.32;;
35330;SDS011;21441;52.190;20.910;2024-02-23T02:21:04;7.95;;;5.93;;
35330;SDS011;21441;52.190;20.910;2024-02-23T02:23:31;8.30;;;6.25;;
35330;SDS011;21441;52.190;20.910;2024-02-23T02:25:58;7.28;;;5.75;;
35330;SDS011;21441;52.190;20.910;2024-02-23T02:28:25;8.10;;;6.13;;
35330;SDS011;21441;52.190;20.910;2024-02-23T02:30:52;9.77;;;6.50;;
35330;SDS011;21441;52.190;20.910;2024-02-23T02:33:19;6.47;;;5.57;;
35330;SDS011;21441;52.190;20.910;2024-02-23T02:35:46;6.22;;;5.57;;
35330;SDS011;21441;52.190;20.910;2024-02-23T02:38:14;7.75;;;5.70;;
35330;SDS011;21441;52.190;20.910;2024-02-23T02:40:41;6.75;;;4.55;;
35330;SDS011;21441;52.190;20.910;2024-02-23T02:43:08;6.65;;;5.50;;
35330;SDS011;21441;52.190;20.910;2024-02-23T02:45:35;6.47;;;5.63;;
35330;SDS011;21441;52.190;20.910;2024-02-23T02:48:02;8.05;;;6.03;;
35330;SDS011;21441;52.190;20.910;2024-02-23T02:50:29;6.45;;;5.22;;
35330;SDS011;21441;52.190;20.910;2024-02-23T02:52:56;4.90;;;4.40;;
35330;SDS011;21441;52.190;20.910;2024-02-23T02:55:24;7.38;;;5.45;;
35330;SDS011;21441;52.190;20.910;2024-02-23T02:57:50;7.47;;;5.18;;
35330;SDS011;21441;52.190;20.910;2024-02-23T03:00:17;6.63;;;5.88;;
35330;SDS011;21441;52.190;20.910;2024-02-23T03:02:44;7.50;;;4.82;;
35330;SDS011;21441;52.190;20.910;2024-02-23T03:05:11;6.30;;;4.90;;
35330;SDS011;21441;52.190;20.910;2024-02-23T03:07:37;5.10;;;4.45;;
35330;SDS011;21441;52.190;20.910;2024-02-23T03:10:05;6.03;;;5.30;;
35330;SDS011;21441;52.190;20.910;2024-02-23T03:12:33;6.38;;;4.97;;
35330;SDS011;21441;52.190;20.910;2024-02-23T03:15:00;5.57;;;4.78;;
35330;SDS011;21441;52.190;20.910;2024-02-23T03:17:28;6.10;;;5.15;;
35330;SDS011;21441;52.190;20.910;2024-02-23T03:19:55;6.50;;;5.13;;
35330;SDS011;21441;52.190;20.910;2024-02-23T03:22:21;7.20;;;6.00;;
35330;SDS011;21441;52.190;20.910;2024-02-23T03:24:48;7.95;;;5.53;;
35330;SDS011;21441;52.190;20.910;2024-02-23T03:27:15;7.75;;;5.80;;
35330;SDS011;21441;52.190;20.910;2024-02-23T03:29:43;7.32;;;5.90;;
35330;SDS011;21441;52.190;20.910;2024-02-23T03:32:10;8.90;;;5.65;;
35330;SDS011;21441;52.190;20.910;2024-02-23T03:34:37;5.80;;;5.18;;
35330;SDS011;21441;52.190;20.910;2024-02-23T03:37:03;6.88;;;5.30;;
35330;SDS011;21441;52.190;20.910;2024-02-23T03:39:30;7.78;;;5.13;;
35330;SDS011;21441;52.190;20.910;2024-02-23T03:41:57;7.53;;;6.00;;
35330;SDS011;21441;52.190;20.910;2024-02-23T03:44:24;9.18;;;6.38;;
35330;SDS011;21441;52.190;20.910;2024-02-23T03:46:52;8.07;;;5.65;;
35330;SDS011;21441;52.190;20.910;2024-02-23T03:49:19;9.05;;;6.80;;
35330;SDS011;21441;52.190;20.910;2024-02-23T03:51:47;7.13;;;5.50;;
35330;SDS011;21441;52.190;20.910;2024-02-23T03:54:14;7.43;;;5.78;;
35330;SDS011;21441;52.190;20.910;2024-02-23T03:56:41;6.60;;;5.90;;
35330;SDS011;21441;52.190;20.910;2024-02-23T03:59:08;7.90;;;6.28;;
35330;SDS011;21441;52.190;20.910;2024-02-23T04:01:35;7.50;;;6.55;;
35330;SDS011;21441;52.190;20.910;2024-02-23T04:04:04;7.78;;;6.22;;
35330;SDS011;21441;52.190;20.910;2024-02-23T04:06:31;8.43;;;6.50;;
35330;SDS011;21441;52.190;20.910;2024-02-23T04:08:58;8.43;;;6.30;;
35330;SDS011;21441;52.190;20.910;2024-02-23T04:11:24;9.40;;;6.47;;
35330;SDS011;21441;52.190;20.910;2024-02-23T04:13:51;8.32;;;7.03;;
35330;SDS011;21441;52.190;20.910;2024-02-23T04:16:18;9.55;;;6.35;;
35330;SDS011;21441;52.190;20.910;2024-02-23T04:18:45;7.95;;;6.63;;
35330;SDS011;21441;52.190;20.910;2024-02-23T04:21:13;8.93;;;6.28;;
35330;SDS011;21441;52.190;20.910;2024-02-23T04:23:41;7.57;;;6.15;;
35330;SDS011;21441;52.190;20.910;2024-02-23T04:26:08;7.80;;;5.85;;
35330;SDS011;21441;52.190;20.910;2024-02-23T04:28:37;7.75;;;6.47;;
35330;SDS011;21441;52.190;20.910;2024-02-23T04:31:04;9.60;;;6.75;;
35330;SDS011;21441;52.190;20.910;2024-02-23T04:33:31;10.68;;;6.82;;
35330;SDS011;21441;52.190;20.910;2024-02-23T04:35:58;8.45;;;6.05;;
35330;SDS011;21441;52.190;20.910;2024-02-23T04:38:26;12.00;;;7.38;;
35330;SDS011;21441;52.190;20.910;2024-02-23T04:40:53;6.30;;;4.93;;
35330;SDS011;21441;52.190;20.910;2024-02-23T04:43:20;7.47;;;6.53;;
35330;SDS011;21441;52.190;20.910;2024-02-23T04:45:47;11.63;;;6.28;;
35330;SDS011;21441;52.190;20.910;2024-02-23T04:48:14;7.70;;;5.90;;
35330;SDS011;21441;52.190;20.910;2024-02-23T04:50:40;8.25;;;6.35;;
35330;SDS011;21441;52.190;20.910;2024-02-23T04:53:07;12.38;;;6.45;;
35330;SDS011;21441;52.190;20.910;2024-02-23T04:55:35;9.05;;;6.32;;
35330;SDS011;21441;52.190;20.910;2024-02-23T04:58:02;6.45;;;5.20;;
35330;SDS011;21441;52.190;20.910;2024-02-23T05:00:29;9.57;;;6.85;;
35330;SDS011;21441;52.190;20.910;2024-02-23T05:02:58;7.75;;;5.97;;
35330;SDS011;21441;52.190;20.910;2024-02-23T05:05:25;8.15;;;5.88;;
35330;SDS011;21441;52.190;20.910;2024-02-23T05:07:52;8.13;;;5.95;;
35330;SDS011;21441;52.190;20.910;2024-02-23T05:10:19;9.05;;;6.50;;
35330;SDS011;21441;52.190;20.910;2024-02-23T05:12:47;8.15;;;6.43;;
35330;SDS011;21441;52.190;20.910;2024-02-23T05:15:14;8.30;;;5.80;;
35330;SDS011;21441;52.190;20.910;2024-02-23T05:17:41;7.32;;;6.32;;
35330;SDS011;21441;52.190;20.910;2024-02-23T05:20:08;12.18;;;6.90;;
35330;SDS011;21441;52.190;20.910;2024-02-23T05:22:36;6.72;;;5.40;;
35330;SDS011;21441;52.190;20.910;2024-02-23T05:25:02;8.18;;;5.13;;
35330;SDS011;21441;52.190;20.910;2024-02-23T05:27:30;6.32;;;5.25;;
35330;SDS011;21441;52.190;20.910;2024-02-23T05:29:58;8.77;;;5.32;;
35330;SDS011;21441;52.190;20.910;2024-02-23T05:32:26;8.93;;;6.05;;
35330;SDS011;21441;52.190;20.910;2024-02-23T05:34:52;7.15;;;5.65;;
35330;SDS011;21441;52.190;20.910;2024-02-23T05:37:20;6.75;;;5.95;;
35330;SDS011;21441;52.190;20.910;2024-02-23T05:39:46;9.57;;;6.80;;
35330;SDS011;21441;52.190;20.910;2024-02-23T05:42:13;8.13;;;4.82;;
35330;SDS011;21441;52.190;20.910;2024-02-23T05:44:42;18.90;;;6.63;;
35330;SDS011;21441;52.190;20.910;2024-02-23T05:47:11;10.38;;;6.10;;
35330;SDS011;21441;52.190;20.910;2024-02-23T05:49:39;9.02;;;6.22;;
35330;SDS011;21441;52.190;20.910;2024-02-23T05:52:06;9.57;;;6.10;;
35330;SDS011;21441;52.190;20.910;2024-02-23T05:54:32;7.63;;;5.85;;
35330;SDS011;21441;52.190;20.910;2024-02-23T05:56:59;8.38;;;6.20;;
35330;SDS011;21441;52.190;20.910;2024-02-23T05:59:26;8.90;;;6.40;;
35330;SDS011;21441;52.190;20.910;2024-02-23T06:01:53;9.27;;;6.53;;
35330;SDS011;21441;52.190;20.910;2024-02-23T06:04:23;22.27;;;6.90;;
35330;SDS011;21441;52.190;20.910;2024-02-23T06:06:50;8.90;;;5.63;;
35330;SDS011;21441;52.190;20.910;2024-02-23T06:09:17;7.10;;;5.72;;
35330;SDS011;21441;52.190;20.910;2024-02-23T06:11:44;6.57;;;5.55;;
35330;SDS011;21441;52.190;20.910;2024-02-23T06:14:11;7.35;;;5.57;;
35330;SDS011;21441;52.190;20.910;2024-02-23T06:16:38;7.35;;;5.75;;
35330;SDS011;21441;52.190;20.910;2024-02-23T06:19:05;9.55;;;6.15;;
35330;SDS011;21441;52.190;20.910;2024-02-23T06:21:34;9.45;;;6.32;;
35330;SDS011;21441;52.190;20.910;2024-02-23T06:24:00;9.05;;;7.03;;
35330;SDS011;21441;52.190;20.910;2024-02-23T06:26:28;10.55;;;6.75;;
35330;SDS011;21441;52.190;20.910;2024-02-23T06:28:54;9.18;;;6.35;;
35330;SDS011;21441;52.190;20.910;2024-02-23T06:31:21;7.95;;;5.65;;
35330;SDS011;21441;52.190;20.910;2024-02-23T06:33:48;8.18;;;5.97;;
35330;SDS011;21441;52.190;20.910;2024-02-23T06:36:16;8.38;;;6.00;;
35330;SDS011;21441;52.190;20.910;2024-02-23T06:38:44;9.68;;;7.60;;
35330;SDS011;21441;52.190;20.910;2024-02-23T06:41:11;9.85;;;6.95;;
35330;SDS011;21441;52.190;20.910;2024-02-23T06:43:38;8.55;;;6.22;;
35330;SDS011;21441;52.190;20.910;2024-02-23T06:46:06;8.32;;;5.32;;
35330;SDS011;21441;52.190;20.910;2024-02-23T06:48:32;7.10;;;5.45;;
35330;SDS011;21441;52.190;20.910;2024-02-23T06:51:00;8.77;;;5.55;;
35330;SDS011;21441;52.190;20.910;2024-02-23T06:53:26;12.70;;;6.10;;
35330;SDS011;21441;52.190;20.910;2024-02-23T06:55:54;9.43;;;6.40;;
35330;SDS011;21441;52.190;20.910;2024-02-23T06:58:21;9.35;;;6.90;;
35330;SDS011;21441;52.190;20.910;2024-02-23T07:00:48;8.27;;;6.22;;
35330;SDS011;21441;52.190;20.910;2024-02-23T07:03:14;7.80;;;6.20;;
35330;SDS011;21441;52.190;20.910;2024-02-23T07:05:42;6.90;;;5.90;;
35330;SDS011;21441;52.190;20.910;2024-02-23T07:08:09;7.40;;;5.72;;
35330;SDS011;21441;52.190;20.910;2024-02-23T07:10:35;9.05;;;5.50;;
35330;SDS011;21441;52.190;20.910;2024-02-23T07:13:03;7.53;;;6.10;;
35330;SDS011;21441;52.190;20.910;2024-02-23T07:15:30;7.57;;;6.22;;
35330;SDS011;21441;52.190;20.910;2024-02-23T07:17:58;10.15;;;7.90;;
35330;SDS011;21441;52.190;20.910;2024-02-23T07:20:25;10.07;;;6.82;;
35330;SDS011;21441;52.190;20.910;2024-02-23T07:22:51;9.65;;;6.90;;
35330;SDS011;21441;52.190;20.910;2024-02-23T07:25:18;10.90;;;7.18;;
35330;SDS011;21441;52.190;20.910;2024-02-23T07:27:46;8.32;;;7.07;;
35330;SDS011;21441;52.190;20.910;2024-02-23T07:30:16;8.95;;;6.78;;
35330;SDS011;21441;52.190;20.910;2024-02-23T07:32:42;9.88;;;6.22;;
35330;SDS011;21441;52.190;20.910;2024-02-23T07:35:10;7.95;;;6.60;;
35330;SDS011;21441;52.190;20.910;2024-02-23T07:37:36;6.47;;;5.35;;
35330;SDS011;21441;52.190;20.910;2024-02-23T07:40:04;8.00;;;5.50;;
35330;SDS011;21441;52.190;20.910;2024-02-23T07:42:31;7.25;;;5.90;;
35330;SDS011;21441;52.190;20.910;2024-02-23T07:44:58;12.25;;;6.63;;
35330;SDS011;21441;52.190;20.910;2024-02-23T07:47:26;9.43;;;6.93;;
35330;SDS011;21441;52.190;20.910;2024-02-23T07:49:54;7.87;;;5.90;;
35330;SDS011;21441;52.190;20.910;2024-02-23T07:52:21;8.65;;;6.25;;
35330;SDS011;21441;52.190;20.910;2024-02-23T07:54:49;7.10;;;5.53;;
35330;SDS011;21441;52.190;20.910;2024-02-23T07:57:17;8.23;;;5.90;;
35330;SDS011;21441;52.190;20.910;2024-02-23T07:59:44;8.98;;;6.53;;
35330;SDS011;21441;52.190;20.910;2024-02-23T08:02:10;8.13;;;4.82;;
35330;SDS011;21441;52.190;20.910;2024-02-23T08:04:39;8.20;;;5.90;;
35330;SDS011;21441;52.190;20.910;2024-02-23T08:07:05;7.90;;;5.90;;
35330;SDS011;21441;52.190;20.910;2024-02-23T08:09:32;8.20;;;6.25;;
35330;SDS011;21441;52.190;20.910;2024-02-23T08:11:59;10.30;;;5.80;;
35330;SDS011;21441;52.190;20.910;2024-02-23T08:14:26;11.18;;;6.50;;
35330;SDS011;21441;52.190;20.910;2024-02-23T08:16:53;9.85;;;7.30;;
35330;SDS011;21441;52.190;20.910;2024-02-23T08:19:20;8.07;;;6.47;;
35330;SDS011;21441;52.190;20.910;2024-02-23T08:21:48;8.77;;;6.40;;
35330;SDS011;21441;52.190;20.910;2024-02-23T08:24:15;12.65;;;6.82;;
35330;SDS011;21441;52.190;20.910;2024-02-23T08:26:41;7.65;;;6.40;;
35330;SDS011;21441;52.190;20.910;2024-02-23T08:29:08;11.38;;;6.88;;
35330;SDS011;21441;52.190;20.910;2024-02-23T08:31:35;10.02;;;6.43;;
35330;SDS011;21441;52.190;20.910;2024-02-23T08:34:02;8.18;;;6.35;;
35330;SDS011;21441;52.190;20.910;2024-02-23T08:36:28;8.25;;;6.35;;
35330;SDS011;21441;52.190;20.910;2024-02-23T08:38:57;8.20;;;6.15;;
35330;SDS011;21441;52.190;20.910;2024-02-23T08:41:23;7.20;;;5.63;;
35330;SDS011;21441;52.190;20.910;2024-02-23T08:43:50;10.65;;;6.70;;
35330;SDS011;21441;52.190;20.910;2024-02-23T08:46:17;8.63;;;5.88;;
35330;SDS011;21441;52.190;20.910;2024-02-23T08:48:45;7.75;;;5.55;;
35330;SDS011;21441;52.190;20.910;2024-02-23T08:51:11;7.05;;;5.10;;
35330;SDS011;21441;52.190;20.910;2024-02-23T08:53:38;7.22;;;6.53;;
35330;SDS011;21441;52.190;20.910;2024-02-23T08:56:07;7.10;;;5.70;;
35330;SDS011;21441;52.190;20.910;2024-02-23T08:58:35;6.18;;;5.50;;
35330;SDS011;21441;52.190;20.910;2024-02-23T09:01:01;6.68;;;5.70;;
35330;SDS011;21441;52.190;20.910;2024-02-23T09:03:30;7.70;;;6.00;;
35330;SDS011;21441;52.190;20.910;2024-02-23T09:05:57;7.25;;;5.43;;
35330;SDS011;21441;52.190;20.910;2024-02-23T09:08:24;8.98;;;5.72;;
35330;SDS011;21441;52.190;20.910;2024-02-23T09:10:50;11.60;;;7.07;;
35330;SDS011;21441;52.190;20.910;2024-02-23T09:13:19;9.93;;;6.53;;
35330;SDS011;21441;52.190;20.910;2024-02-23T09:15:45;6.90;;;5.78;;
35330;SDS011;21441;52.190;20.910;2024-02-23T09:18:12;8.55;;;5.90;;
35330;SDS011;21441;52.190;20.910;2024-02-23T09:20:39;8.38;;;6.80;;
35330;SDS011;21441;52.190;20.910;2024-02-23T09:23:06;11.43;;;6.43;;
35330;SDS011;21441;52.190;20.910;2024-02-23T09:25:33;8.02;;;5.85;;
35330;SDS011;21441;52.190;20.910;2024-02-23T09:27:59;7.70;;;6.50;;
35330;SDS011;21441;52.190;20.910;2024-02-23T09:30:28;11.10;;;6.57;;
35330;SDS011;21441;52.190;20.910;2024-02-23T09:32:54;8.50;;;5.75;;
35330;SDS011;21441;52.190;20.910;2024-02-23T09:35:21;7.40;;;5.75;;
35330;SDS011;21441;52.190;20.910;2024-02-23T09:37:48;7.85;;;5.82;;
35330;SDS011;21441;52.190;20.910;2024-02-23T09:40:15;9.25;;;5.75;;
35330;SDS011;21441;52.190;20.910;2024-02-23T09:42:42;7.55;;;6.25;;
35330;SDS011;21441;52.190;20.910;2024-02-23T09:45:08;8.77;;;6.72;;
35330;SDS011;21441;52.190;20.910;2024-02-23T09:47:39;8.63;;;6.63;;
35330;SDS011;21441;52.190;20.910;2024-02-23T09:50:07;6.85;;;5.85;;
35330;SDS011;21441;52.190;20.910;2024-02-23T09:52:35;11.70;;;6.90;;
35330;SDS011;21441;52.190;20.910;2024-02-23T09:55:02;8.82;;;6.85;;
35330;SDS011;21441;52.190;20.910;2024-02-23T09:57:30;8.65;;;6.78;;
35330;SDS011;21441;52.190;20.910;2024-02-23T09:59:57;8.60;;;6.40;;
35330;SDS011;21441;52.190;20.910;2024-02-23T10:02:24;8.98;;;6.07;;
35330;SDS011;21441;52.190;20.910;2024-02-23T10:04:53;7.65;;;6.05;;
35330;SDS011;21441;52.190;20.910;2024-02-23T10:07:21;7.07;;;6.33;;
35330;SDS011;21441;52.190;20.910;2024-02-23T10:09:47;8.57;;;6.25;;
35330;SDS011;21441;52.190;20.910;2024-02-23T10:12:15;8.95;;;6.40;;
35330;SDS011;21441;52.190;20.910;2024-02-23T10:14:43;6.85;;;6.00;;
35330;SDS011;21441;52.190;20.910;2024-02-23T10:17:10;9.88;;;6.47;;
35330;SDS011;21441;52.190;20.910;2024-02-23T10:19:36;9.60;;;6.75;;
35330;SDS011;21441;52.190;20.910;2024-02-23T10:22:05;8.38;;;6.25;;
35330;SDS011;21441;52.190;20.910;2024-02-23T10:24:32;7.90;;;6.00;;
35330;SDS011;21441;52.190;20.910;2024-02-23T10:26:59;7.40;;;6.10;;
35330;SDS011;21441;52.190;20.910;2024-02-23T10:29:26;9.23;;;7.40;;
35330;SDS011;21441;52.190;20.910;2024-02-23T10:31:53;8.70;;;6.57;;
35330;SDS011;21441;52.190;20.910;2024-02-23T10:34:23;6.90;;;6.00;;
35330;SDS011;21441;52.190;20.910;2024-02-23T10:36:51;9.50;;;7.40;;
35330;SDS011;21441;52.190;20.910;2024-02-23T10:39:19;8.65;;;6.43;;
35330;SDS011;21441;52.190;20.910;2024-02-23T10:41:51;7.97;;;6.53;;
35330;SDS011;21441;52.190;20.910;2024-02-23T10:44:22;8.00;;;6.25;;
35330;SDS011;21441;52.190;20.910;2024-02-23T10:46:50;8.32;;;6.60;;
35330;SDS011;21441;52.190;20.910;2024-02-23T10:49:17;9.48;;;7.25;;
35330;SDS011;21441;52.190;20.910;2024-02-23T10:51:45;10.15;;;6.80;;
35330;SDS011;21441;52.190;20.910;2024-02-23T10:54:13;11.27;;;6.72;;
35330;SDS011;21441;52.190;20.910;2024-02-23T10:56:42;8.07;;;7.28;;
35330;SDS011;21441;52.190;20.910;2024-02-23T10:59:08;9.55;;;6.80;;
35330;SDS011;21441;52.190;20.910;2024-02-23T11:01:35;8.38;;;7.32;;
35330;SDS011;21441;52.190;20.910;2024-02-23T11:04:04;10.38;;;7.28;;
35330;SDS011;21441;52.190;20.910;2024-02-23T11:06:33;8.63;;;7.03;;
35330;SDS011;21441;52.190;20.910;2024-02-23T11:09:06;9.73;;;7.13;;
35330;SDS011;21441;52.190;20.910;2024-02-23T11:11:34;9.18;;;8.05;;
35330;SDS011;21441;52.190;20.910;2024-02-23T11:14:06;8.95;;;8.05;;
35330;SDS011;21441;52.190;20.910;2024-02-23T11:16:37;11.98;;;7.97;;
35330;SDS011;21441;52.190;20.910;2024-02-23T11:19:04;12.18;;;8.25;;
35330;SDS011;21441;52.190;20.910;2024-02-23T11:21:35;9.50;;;8.50;;
35330;SDS011;21441;52.190;20.910;2024-02-23T11:24:02;10.50;;;8.15;;
35330;SDS011;21441;52.190;20.910;2024-02-23T11:26:29;10.32;;;8.30;;
35330;SDS011;21441;52.190;20.910;2024-02-23T11:28:57;10.07;;;7.85;;
35330;SDS011;21441;52.190;20.910;2024-02-23T11:31:28;12.55;;;9.90;;
35330;SDS011;21441;52.190;20.910;2024-02-23T11:33:55;13.50;;;9.85;;
35330;SDS011;21441;52.190;20.910;2024-02-23T11:36:23;11.68;;;9.57;;
35330;SDS011;21441;52.190;20.910;2024-02-23T11:38:52;16.90;;;11.50;;
35330;SDS011;21441;52.190;20.910;2024-02-23T11:41:19;11.52;;;10.05;;
35330;SDS011;21441;52.190;20.910;2024-02-23T11:43:46;16.08;;;11.48;;
35330;SDS011;21441;52.190;20.910;2024-02-23T11:46:14;17.55;;;12.15;;
35330;SDS011;21441;52.190;20.910;2024-02-23T11:48:42;13.07;;;10.75;;
35330;SDS011;21441;52.190;20.910;2024-02-23T11:51:09;11.18;;;9.10;;
35330;SDS011;21441;52.190;20.910;2024-02-23T11:53:36;11.75;;;9.35;;
35330;SDS011;21441;52.190;20.910;2024-02-23T11:56:03;12.75;;;9.40;;
35330;SDS011;21441;52.190;20.910;2024-02-23T11:58:30;11.30;;;9.35;;
35330;SDS011;21441;52.190;20.910;2024-02-23T12:00:57;13.95;;;9.48;;
35330;SDS011;21441;52.190;20.910;2024-02-23T12:03:26;11.10;;;8.88;;
35330;SDS011;21441;52.190;20.910;2024-02-23T12:05:54;10.95;;;7.93;;
35330;SDS011;21441;52.190;20.910;2024-02-23T12:08:21;10.15;;;8.35;;
35330;SDS011;21441;52.190;20.910;2024-02-23T12:10:48;10.07;;;8.27;;
35330;SDS011;21441;52.190;20.910;2024-02-23T12:13:15;11.90;;;8.43;;
35330;SDS011;21441;52.190;20.910;2024-02-23T12:15:42;11.95;;;8.82;;
35330;SDS011;21441;52.190;20.910;2024-02-23T12:18:10;10.82;;;8.18;;
35330;SDS011;21441;52.190;20.910;2024-02-23T12:20:37;10.80;;;8.60;;
35330;SDS011;21441;52.190;20.910;2024-02-23T12:23:05;10.77;;;8.23;;
35330;SDS011;21441;52.190;20.910;2024-02-23T12:25:32;15.13;;;10.15;;
35330;SDS011;21441;52.190;20.910;2024-02-23T12:27:58;10.80;;;9.70;;
35330;SDS011;21441;52.190;20.910;2024-02-23T12:30:26;12.18;;;8.43;;
35330;SDS011;21441;52.190;20.910;2024-02-23T12:33:02;11.20;;;8.60;;
35330;SDS011;21441;52.190;20.910;2024-02-23T12:35:29;12.05;;;8.18;;
35330;SDS011;21441;52.190;20.910;2024-02-23T12:37:56;11.38;;;9.10;;
35330;SDS011;21441;52.190;20.910;2024-02-23T12:40:24;12.95;;;9.80;;
35330;SDS011;21441;52.190;20.910;2024-02-23T12:42:50;10.18;;;8.95;;
35330;SDS011;21441;52.190;20.910;2024-02-23T12:45:17;9.65;;;8.18;;
35330;SDS011;21441;52.190;20.910;2024-02-23T12:47:44;11.80;;;9.25;;
35330;SDS011;21441;52.190;20.910;2024-02-23T12:50:11;11.93;;;8.63;;
35330;SDS011;21441;52.190;20.910;2024-02-23T12:52:37;11.60;;;9.00;;
35330;SDS011;21441;52.190;20.910;2024-02-23T12:55:05;10.75;;;8.60;;
35330;SDS011;21441;52.190;20.910;2024-02-23T12:57:32;12.32;;;10.18;;
35330;SDS011;21441;52.190;20.910;2024-02-23T12:59:59;12.75;;;9.88;;
35330;SDS011;21441;52.190;20.910;2024-02-23T13:02:26;10.55;;;9.35;;
35330;SDS011;21441;52.190;20.910;2024-02-23T13:04:53;13.13;;;10.10;;
35330;SDS011;21441;52.190;20.910;2024-02-23T13:07:20;15.10;;;9.95;;
35330;SDS011;21441;52.190;20.910;2024-02-23T13:09:47;12.32;;;9.85;;
35330;SDS011;21441;52.190;20.910;2024-02-23T13:12:13;14.60;;;9.52;;
35330;SDS011;21441;52.190;20.910;2024-02-23T13:14:41;13.57;;;9.95;;
35330;SDS011;21441;52.190;20.910;2024-02-23T13:17:08;10.93;;;9.30;;
35330;SDS011;21441;52.190;20.910;2024-02-23T13:19:35;12.88;;;8.45;;
35330;SDS011;21441;52.190;20.910;2024-02-23T13:22:02;11.57;;;9.25;;
35330;SDS011;21441;52.190;20.910;2024-02-23T13:24:30;11.35;;;9.00;;
35330;SDS011;21441;52.190;20.910;2024-02-23T13:26:56;13.35;;;8.88;;
35330;SDS011;21441;52.190;20.910;2024-02-23T13:29:23;12.93;;;10.30;;
35330;SDS011;21441;52.190;20.910;2024-02-23T13:31:51;12.65;;;9.35;;
35330;SDS011;21441;52.190;20.910;2024-02-23T13:34:18;13.63;;;9.98;;
35330;SDS011;21441;52.190;20.910;2024-02-23T13:36:45;12.30;;;10.07;;
35330;SDS011;21441;52.190;20.910;2024-02-23T13:39:13;14.02;;;10.07;;
35330;SDS011;21441;52.190;20.910;2024-02-23T13:41:39;12.73;;;10.15;;
35330;SDS011;21441;52.190;20.910;2024-02-23T13:44:06;13.20;;;9.82;;
35330;SDS011;21441;52.190;20.910;2024-02-23T13:49:05;11.65;;;9.82;;
35330;SDS011;21441;52.190;20.910;2024-02-23T13:51:32;12.32;;;10.88;;
35330;SDS011;21441;52.190;20.910;2024-02-23T13:53:59;12.52;;;10.00;;
35330;SDS011;21441;52.190;20.910;2024-02-23T13:56:29;15.82;;;10.98;;
35330;SDS011;21441;52.190;20.910;2024-02-23T13:58:56;13.05;;;9.95;;
35330;SDS011;21441;52.190;20.910;2024-02-23T14:01:23;14.65;;;10.65;;
35330;SDS011;21441;52.190;20.910;2024-02-23T14:03:50;11.57;;;9.93;;
35330;SDS011;21441;52.190;20.910;2024-02-23T14:06:18;11.80;;;10.02;;
35330;SDS011;21441;52.190;20.910;2024-02-23T14:08:45;12.35;;;10.15;;
35330;SDS011;21441;52.190;20.910;2024-02-23T14:11:13;13.82;;;11.07;;
35330;SDS011;21441;52.190;20.910;2024-02-23T14:13:40;13.52;;;10.95;;
35330;SDS011;21441;52.190;20.910;2024-02-23T14:16:06;13.07;;;10.98;;
35330;SDS011;21441;52.190;20.910;2024-02-23T14:18:33;14.00;;;11.98;;
35330;SDS011;21441;52.190;20.910;2024-02-23T14:21:03;14.55;;;11.77;;
35330;SDS011;21441;52.190;20.910;2024-02-23T14:23:32;11.63;;;10.43;;
35330;SDS011;21441;52.190;20.910;2024-02-23T14:25:59;15.32;;;11.45;;
35330;SDS011;21441;52.190;20.910;2024-02-23T14:28:26;15.20;;;11.48;;
35330;SDS011;21441;52.190;20.910;2024-02-23T14:30:52;14.55;;;11.45;;